Antares — DFJQ — position and weather

sailwx.info

Track history (hours):
 
Tides and Currents Weather Stations Pressure Air Temp Water Temp Dewpoint Dewpoint Depression Visibility Wind Speed Wind Dir Waves Ship Positions

Antares

Last reported at 2017-Mar-28 09:33 UTC. Time now 2017-Mar-28 09:55 UTC.
Position N 49°26' E 000°16'.

Length 79 m; draft 4.7 m.

Type: Ship. MMSI: 218777000.

Date/timePositionNaut miles runAvg speedWind from/ knotsBaromVisibWave heightAir tempDewpointWater temp
2017-Mar-28 09:33N 49°26' E 000°16'8 7.5
2017-Mar-28 08:34N 49°28' E 000°27'4 3.5
2017-Mar-28 07:33N 49°28' E 000°32'0 0.0
2017-Mar-28 06:16N 49°28' E 000°32'0 0.0
2017-Mar-28 05:28N 49°28' E 000°32'0 0.0
2017-Mar-28 04:28N 49°28' E 000°32'0 0.0
2017-Mar-28 03:31N 49°28' E 000°32'0 0.0
2017-Mar-28 02:28N 49°28' E 000°32'0 0.0
2017-Mar-28 01:22N 49°28' E 000°32'0 0.0
2017-Mar-28 00:31N 49°28' E 000°32'0 0.0
2017-Mar-27 23:31N 49°28' E 000°32'0 0.0
2017-Mar-27 22:31N 49°28' E 000°32'0 0.0
2017-Mar-27 21:28N 49°28' E 000°32'0 0.0
2017-Mar-27 20:22N 49°28' E 000°32'0 0.0
2017-Mar-27 19:25N 49°28' E 000°32'0 0.0
2017-Mar-27 18:25N 49°28' E 000°32'0 0.0
2017-Mar-27 17:31N 49°28' E 000°32'0 0.0
2017-Mar-27 16:31N 49°28' E 000°32'0 0.0
2017-Mar-27 15:28N 49°28' E 000°32'0 0.0
2017-Mar-27 14:31N 49°28' E 000°32'0 0.0
2017-Mar-27 13:28N 49°28' E 000°32'0 0.0
2017-Mar-27 12:22N 49°28' E 000°32'0 0.0
2017-Mar-27 11:31N 49°28' E 000°32'0 0.0
2017-Mar-27 10:31N 49°28' E 000°32'0 0.0
2017-Mar-27 09:31N 49°28' E 000°32'0 0.0
2017-Mar-27 08:31N 49°28' E 000°32'0 0.0
2017-Mar-27 07:22N 49°28' E 000°32'0 0.0
2017-Mar-27 06:22N 49°28' E 000°32'0 0.0
2017-Mar-27 05:31N 49°28' E 000°32'0 0.0
2017-Mar-27 04:31N 49°28' E 000°32'0 0.0
2017-Mar-27 03:25N 49°28' E 000°32'0 0.0
2017-Mar-27 02:10N 49°28' E 000°32'0 0.0
2017-Mar-27 01:31N 49°28' E 000°32'0 0.0
2017-Mar-27 00:22N 49°28' E 000°32'0 0.0
2017-Mar-26 23:31N 49°28' E 000°32'0 0.0
2017-Mar-26 22:22N 49°28' E 000°32'0 0.0
2017-Mar-26 21:28N 49°28' E 000°32'0 0.0
2017-Mar-26 20:19N 49°28' E 000°32'0 0.0
2017-Mar-26 19:25N 49°28' E 000°32'3 4.0
2017-Mar-26 18:33N 49°28' E 000°27'1313.0
2017-Mar-26 17:33N 49°26' E 000°07'9 9.0
2017-Mar-26 16:34N 49°28' W 000°06'0 0.3
2017-Mar-26 15:33N 49°28' W 000°07'0 0.0
2017-Mar-26 14:33N 49°28' W 000°07'0 0.0
2017-Mar-26 13:33N 49°28' W 000°07'0 0.0
2017-Mar-26 12:33N 49°28' W 000°07'0 0.0
2017-Mar-26 11:33N 49°28' W 000°07'0 0.0
2017-Mar-26 10:33N 49°28' W 000°07'0 0.1
2017-Mar-26 09:33N 49°28' W 000°07'0 0.1
2017-Mar-26 08:33N 49°28' W 000°06'0 0.0
2017-Mar-26 07:33N 49°28' W 000°06'0 0.1
2017-Mar-26 06:33N 49°28' W 000°07'0 0.1
2017-Mar-26 05:33N 49°28' W 000°07'0 0.0
2017-Mar-26 04:33N 49°28' W 000°07'0 0.0
2017-Mar-26 03:33N 49°28' W 000°07'0 0.0
2017-Mar-26 02:33N 49°28' W 000°07'0 0.0
2017-Mar-26 01:33N 49°28' W 000°07'0 0.0
2017-Mar-26 00:30N 49°28' W 000°07'0 0.0
2017-Mar-25 23:33N 49°28' W 000°07'0 0.0
2017-Mar-25 22:33N 49°28' W 000°07'0 0.0
2017-Mar-25 21:33N 49°28' W 000°07'0 0.0
2017-Mar-25 20:33N 49°28' W 000°07'0 0.0
2017-Mar-25 19:33N 49°28' W 000°07'0 0.0
2017-Mar-25 18:33N 49°28' W 000°07'0 0.0
2017-Mar-25 17:33N 49°28' W 000°07'0 0.0
2017-Mar-25 16:33N 49°28' W 000°07'0 0.0
2017-Mar-25 15:33N 49°28' W 000°07'0 0.0
2017-Mar-25 14:33N 49°28' W 000°07'0 0.0
2017-Mar-25 13:33N 49°28' W 000°07'0 0.0
2017-Mar-25 12:33N 49°28' W 000°07'0 0.0
2017-Mar-25 11:30N 49°28' W 000°07'0 0.0
2017-Mar-25 10:33N 49°28' W 000°07'0 0.0
2017-Mar-25 09:33N 49°28' W 000°07'0 0.0
2017-Mar-25 08:33N 49°28' W 000°07'0 0.0
2017-Mar-25 07:33N 49°28' W 000°07'0 0.0
2017-Mar-25 06:33N 49°28' W 000°07'0 0.0
2017-Mar-25 05:33N 49°28' W 000°07'0 0.0
2017-Mar-25 04:33N 49°28' W 000°07'0 0.0
2017-Mar-25 03:33N 49°28' W 000°07'0 0.0
2017-Mar-25 02:33N 49°28' W 000°07'0 0.0
2017-Mar-25 01:33N 49°28' W 000°07'5 5.3
2017-Mar-25 00:33N 49°30' W 000°14'8 8.0
2017-Mar-24 23:34N 49°34' W 000°25'8 8.4
2017-Mar-24 22:33N 49°42' W 000°27'1110.7
2017-Mar-24 21:33N 49°52' W 000°19'1010.5
2017-Mar-24 20:33N 50°00' W 000°10'1010.0
2017-Mar-24 19:33N 50°09' W 000°03'1110.0
2017-Mar-24 18:30N 50°20' W 000°03'8 8.6
2017-Mar-24 17:33N 50°28' E 000°01'10 9.9
2017-Mar-24 16:30N 50°31' E 000°17'1010.8
2017-Mar-24 15:33N 50°34' E 000°32'1211.5
2017-Mar-24 14:33N 50°41' E 000°46'1211.9
2017-Mar-24 13:33N 50°49' E 001°01'1111.3
2017-Mar-24 12:33N 50°56' E 001°14'1010.3
2017-Mar-24 11:33N 51°04' E 001°25'9 9.1
2017-Mar-24 10:33N 51°10' E 001°36'8 8.1
2017-Mar-24 09:33N 51°17' E 001°43'8 7.7
2017-Mar-24 08:33N 51°23' E 001°35'7 6.5
2017-Mar-24 07:33N 51°25' E 001°25'2 1.7
2017-Mar-24 06:33N 51°25' E 001°23'0 0.1
2017-Mar-24 05:33N 51°25' E 001°23'0 0.0
2017-Mar-24 04:33N 51°25' E 001°23'0 0.0
2017-Mar-24 03:33N 51°25' E 001°23'0 0.0
2017-Mar-24 02:33N 51°25' E 001°23'0 0.0
2017-Mar-24 01:33N 51°25' E 001°23'0 0.1
2017-Mar-24 00:33N 51°25' E 001°23'0 0.0
2017-Mar-23 23:33N 51°25' E 001°23'0 0.0
2017-Mar-23 22:33N 51°25' E 001°23'0 0.0
2017-Mar-23 21:33N 51°25' E 001°23'0 0.0
2017-Mar-23 20:33N 51°25' E 001°23'0 0.0
2017-Mar-23 19:33N 51°25' E 001°23'0 0.2
2017-Mar-23 18:33N 51°25' E 001°23'0 0.0
2017-Mar-23 17:33N 51°25' E 001°23'0 0.1
2017-Mar-23 16:33N 51°25' E 001°23'0 0.0
2017-Mar-23 15:33N 51°25' E 001°23'0 0.1
2017-Mar-23 14:33N 51°25' E 001°23'0 0.1
2017-Mar-23 13:33N 51°25' E 001°24'0 0.1
2017-Mar-23 12:33N 51°25' E 001°24'0 0.0
2017-Mar-23 11:33N 51°25' E 001°24'0 0.0
2017-Mar-23 10:33N 51°25' E 001°24'0 0.0
2017-Mar-23 09:33N 51°25' E 001°24'0 0.0
2017-Mar-23 08:33N 51°25' E 001°24'0 0.0
2017-Mar-23 07:33N 51°25' E 001°24'0 0.0
2017-Mar-23 06:33N 51°25' E 001°24'0 0.0
2017-Mar-23 05:33N 51°25' E 001°24'0 0.0
2017-Mar-23 04:33N 51°25' E 001°24'0 0.0
2017-Mar-23 03:33N 51°25' E 001°24'0 0.0
2017-Mar-23 02:33N 51°25' E 001°24'0 0.0
2017-Mar-23 01:33N 51°25' E 001°24'0 0.1
2017-Mar-23 00:33N 51°25' E 001°24'0 0.0
2017-Mar-22 23:33N 51°25' E 001°24'0 0.0
2017-Mar-22 22:33N 51°25' E 001°24'0 0.0
2017-Mar-22 21:33N 51°25' E 001°24'0 0.1
2017-Mar-22 20:33N 51°25' E 001°24'0 0.1
2017-Mar-22 19:33N 51°25' E 001°24'0 0.0
2017-Mar-22 18:33N 51°25' E 001°24'0 0.0
2017-Mar-22 17:33N 51°25' E 001°24'0 0.0
2017-Mar-22 16:33N 51°25' E 001°24'1 0.7
2017-Mar-22 15:33N 51°25' E 001°25'2 2.0
2017-Mar-22 14:34N 51°25' E 001°22'0 0.0
2017-Mar-22 13:34N 51°25' E 001°22'0 0.0
2017-Mar-22 12:33N 51°25' E 001°22'0 0.0
2017-Mar-22 11:33N 51°25' E 001°22'0 0.0
2017-Mar-22 10:33N 51°25' E 001°22'0 0.0
2017-Mar-22 09:33N 51°25' E 001°22'0 0.0
2017-Mar-22 08:34N 51°25' E 001°22'0 0.0
2017-Mar-22 07:34N 51°25' E 001°22'0 0.0
2017-Mar-22 06:33N 51°25' E 001°22'0 0.0
2017-Mar-22 05:33N 51°25' E 001°22'0 0.0
2017-Mar-22 04:33N 51°25' E 001°22'0 0.0
2017-Mar-22 03:34N 51°25' E 001°22'0 0.0
2017-Mar-22 02:33N 51°25' E 001°22'0 0.0
2017-Mar-22 01:33N 51°25' E 001°22'0 0.0
2017-Mar-22 00:33N 51°25' E 001°22'0 0.0
2017-Mar-21 23:33N 51°25' E 001°22'0 0.0
2017-Mar-21 22:33N 51°25' E 001°22'0 0.0
2017-Mar-21 21:34N 51°25' E 001°22'0 0.0
2017-Mar-21 20:33N 51°25' E 001°22'0 0.0
2017-Mar-21 19:33N 51°25' E 001°22'0 0.0
2017-Mar-21 18:34N 51°25' E 001°22'0 0.0
2017-Mar-21 17:33N 51°25' E 001°22'0 0.1
2017-Mar-21 16:34N 51°25' E 001°22'0 0.0
2017-Mar-21 15:34N 51°25' E 001°22'0 0.1
2017-Mar-21 14:34N 51°25' E 001°22'0 0.0
2017-Mar-21 13:34N 51°25' E 001°22'0 0.0
2017-Mar-21 12:34N 51°25' E 001°22'0 0.0
2017-Mar-21 11:33N 51°25' E 001°22'0 0.0
2017-Mar-21 10:33N 51°25' E 001°22'0 0.0
2017-Mar-21 09:33N 51°25' E 001°22'0 0.0
2017-Mar-21 08:33N 51°25' E 001°22'0 0.0
2017-Mar-21 07:33N 51°25' E 001°22'0 0.0
2017-Mar-21 06:33N 51°25' E 001°22'0 0.0
2017-Mar-21 05:33N 51°25' E 001°22'0 0.1
2017-Mar-21 04:33N 51°25' E 001°22'0 0.0
2017-Mar-21 03:33N 51°25' E 001°22'0 0.0
2017-Mar-21 02:34N 51°25' E 001°22'0 0.0
2017-Mar-21 01:33N 51°25' E 001°22'0 0.1
2017-Mar-21 00:33N 51°25' E 001°22'0 0.1
2017-Mar-20 23:33N 51°25' E 001°22'0 0.0
2017-Mar-20 22:33N 51°25' E 001°22'0 0.0
2017-Mar-20 21:33N 51°25' E 001°22'0 0.0
2017-Mar-20 20:33N 51°25' E 001°22'0 0.0
2017-Mar-20 19:33N 51°25' E 001°22'0 0.0
2017-Mar-20 18:33N 51°25' E 001°22'0 0.0
2017-Mar-20 17:33N 51°25' E 001°22'0 0.0
2017-Mar-20 16:33N 51°25' E 001°22'0 0.1
2017-Mar-20 15:33N 51°25' E 001°22'0 0.0
2017-Mar-20 14:33N 51°25' E 001°22'0 0.0
2017-Mar-20 13:33N 51°25' E 001°22'0 0.0
2017-Mar-20 12:33N 51°25' E 001°22'0 0.0
2017-Mar-20 11:33N 51°25' E 001°22'0 0.0
2017-Mar-20 10:33N 51°25' E 001°22'0 0.0
2017-Mar-20 09:33N 51°25' E 001°22'0 0.0
2017-Mar-20 08:33N 51°25' E 001°22'0 0.0
2017-Mar-20 07:33N 51°25' E 001°22'0 0.0
2017-Mar-20 06:33N 51°25' E 001°22'0 0.0
2017-Mar-20 05:34N 51°25' E 001°22'6 6.2
2017-Mar-20 04:33N 51°27' E 001°31'9 9.0
2017-Mar-20 03:33N 51°34' E 001°41'9 9.5
2017-Mar-20 02:33N 51°43' E 001°44'1110.9
2017-Mar-20 01:33N 51°54' E 001°44'1211.6
2017-Mar-20 00:33N 52°05' E 001°49'126 8.8
2017-Mar-19 10:12N 53°60' E 000°23'711.3
2017-Mar-19 09:33N 54°06' E 000°16'1111.5
2017-Mar-19 08:33N 54°15' E 000°06'1111.4
2017-Mar-19 07:33N 54°25' W 000°05'1211.6
2017-Mar-19 06:33N 54°35' W 000°15'1311.1
2017-Mar-19 05:26N 54°46' W 000°26'3210.4
2017-Mar-19 02:23N 55°12' W 000°56'810.0
2017-Mar-19 01:33N 55°20' W 001°03'10 9.7
2017-Mar-19 00:33N 55°28' W 001°12'10 9.8
2017-Mar-18 23:33N 55°36' W 001°21'12 9.9
2017-Mar-18 22:20N 55°46' W 001°34'910.8
2017-Mar-18 21:33N 55°52' W 001°43'1110.9
2017-Mar-18 20:33N 56°00' W 001°56'1111.0
2017-Mar-18 19:33N 56°09' W 002°09'1110.9
2017-Mar-18 18:33N 56°18' W 002°21'1110.9
2017-Mar-18 17:33N 56°26' W 002°34'9 8.7
2017-Mar-18 16:33N 56°27' W 002°49'4 3.8
2017-Mar-18 15:29N 56°28' W 002°57'0 0.0
2017-Mar-18 14:29N 56°28' W 002°57'0 0.0
2017-Mar-18 13:17N 56°28' W 002°57'0 0.0
2017-Mar-18 12:29N 56°28' W 002°57'0 0.0
2017-Mar-18 11:17N 56°28' W 002°57'0 0.0
2017-Mar-18 10:23N 56°28' W 002°57'  
Track history (hours):
 
Tides and Currents Weather Stations Pressure Air Temp Water Temp Dewpoint Dewpoint Depression Visibility Wind Speed Wind Dir Waves Ship Positions

Antares

Last reported at 2017-Mar-28 09:33 UTC. Time now 2017-Mar-28 09:55 UTC.
Position N 49°26' E 000°16'.

Length 79 m; draft 4.7 m.

Type: Ship. MMSI: 218777000.

Date/timePositionNaut miles runAvg speedWind from/ knotsBaromVisibWave heightAir tempDewpointWater temp
2017-Mar-28 09:33N 49°26' E 000°16'8 7.5
2017-Mar-28 08:34N 49°28' E 000°27'4 3.5
2017-Mar-28 07:33N 49°28' E 000°32'0 0.0
2017-Mar-28 06:16N 49°28' E 000°32'0 0.0
2017-Mar-28 05:28N 49°28' E 000°32'0 0.0
2017-Mar-28 04:28N 49°28' E 000°32'0 0.0
2017-Mar-28 03:31N 49°28' E 000°32'0 0.0
2017-Mar-28 02:28N 49°28' E 000°32'0 0.0
2017-Mar-28 01:22N 49°28' E 000°32'0 0.0
2017-Mar-28 00:31N 49°28' E 000°32'0 0.0
2017-Mar-27 23:31N 49°28' E 000°32'0 0.0
2017-Mar-27 22:31N 49°28' E 000°32'0 0.0
2017-Mar-27 21:28N 49°28' E 000°32'0 0.0
2017-Mar-27 20:22N 49°28' E 000°32'0 0.0
2017-Mar-27 19:25N 49°28' E 000°32'0 0.0
2017-Mar-27 18:25N 49°28' E 000°32'0 0.0
2017-Mar-27 17:31N 49°28' E 000°32'0 0.0
2017-Mar-27 16:31N 49°28' E 000°32'0 0.0
2017-Mar-27 15:28N 49°28' E 000°32'0 0.0
2017-Mar-27 14:31N 49°28' E 000°32'0 0.0
2017-Mar-27 13:28N 49°28' E 000°32'0 0.0
2017-Mar-27 12:22N 49°28' E 000°32'0 0.0
2017-Mar-27 11:31N 49°28' E 000°32'0 0.0
2017-Mar-27 10:31N 49°28' E 000°32'0 0.0
2017-Mar-27 09:31N 49°28' E 000°32'0 0.0
2017-Mar-27 08:31N 49°28' E 000°32'0 0.0
2017-Mar-27 07:22N 49°28' E 000°32'0 0.0
2017-Mar-27 06:22N 49°28' E 000°32'0 0.0
2017-Mar-27 05:31N 49°28' E 000°32'0 0.0
2017-Mar-27 04:31N 49°28' E 000°32'0 0.0
2017-Mar-27 03:25N 49°28' E 000°32'0 0.0
2017-Mar-27 02:10N 49°28' E 000°32'0 0.0
2017-Mar-27 01:31N 49°28' E 000°32'0 0.0
2017-Mar-27 00:22N 49°28' E 000°32'0 0.0
2017-Mar-26 23:31N 49°28' E 000°32'0 0.0
2017-Mar-26 22:22N 49°28' E 000°32'0 0.0
2017-Mar-26 21:28N 49°28' E 000°32'0 0.0
2017-Mar-26 20:19N 49°28' E 000°32'0 0.0
2017-Mar-26 19:25N 49°28' E 000°32'3 4.0
2017-Mar-26 18:33N 49°28' E 000°27'1313.0
2017-Mar-26 17:33N 49°26' E 000°07'9 9.0
2017-Mar-26 16:34N 49°28' W 000°06'0 0.3
2017-Mar-26 15:33N 49°28' W 000°07'0 0.0
2017-Mar-26 14:33N 49°28' W 000°07'0 0.0
2017-Mar-26 13:33N 49°28' W 000°07'0 0.0
2017-Mar-26 12:33N 49°28' W 000°07'0 0.0
2017-Mar-26 11:33N 49°28' W 000°07'0 0.0
2017-Mar-26 10:33N 49°28' W 000°07'0 0.1
2017-Mar-26 09:33N 49°28' W 000°07'0 0.1
2017-Mar-26 08:33N 49°28' W 000°06'0 0.0
2017-Mar-26 07:33N 49°28' W 000°06'0 0.1
2017-Mar-26 06:33N 49°28' W 000°07'0 0.1
2017-Mar-26 05:33N 49°28' W 000°07'0 0.0
2017-Mar-26 04:33N 49°28' W 000°07'0 0.0
2017-Mar-26 03:33N 49°28' W 000°07'0 0.0
2017-Mar-26 02:33N 49°28' W 000°07'0 0.0
2017-Mar-26 01:33N 49°28' W 000°07'0 0.0
2017-Mar-26 00:30N 49°28' W 000°07'0 0.0
2017-Mar-25 23:33N 49°28' W 000°07'0 0.0
2017-Mar-25 22:33N 49°28' W 000°07'0 0.0
2017-Mar-25 21:33N 49°28' W 000°07'0 0.0
2017-Mar-25 20:33N 49°28' W 000°07'0 0.0
2017-Mar-25 19:33N 49°28' W 000°07'0 0.0
2017-Mar-25 18:33N 49°28' W 000°07'0 0.0
2017-Mar-25 17:33N 49°28' W 000°07'0 0.0
2017-Mar-25 16:33N 49°28' W 000°07'0 0.0
2017-Mar-25 15:33N 49°28' W 000°07'0 0.0
2017-Mar-25 14:33N 49°28' W 000°07'0 0.0
2017-Mar-25 13:33N 49°28' W 000°07'0 0.0
2017-Mar-25 12:33N 49°28' W 000°07'0 0.0
2017-Mar-25 11:30N 49°28' W 000°07'0 0.0
2017-Mar-25 10:33N 49°28' W 000°07'0 0.0
2017-Mar-25 09:33N 49°28' W 000°07'0 0.0
2017-Mar-25 08:33N 49°28' W 000°07'0 0.0
2017-Mar-25 07:33N 49°28' W 000°07'0 0.0
2017-Mar-25 06:33N 49°28' W 000°07'0 0.0
2017-Mar-25 05:33N 49°28' W 000°07'0 0.0
2017-Mar-25 04:33N 49°28' W 000°07'0 0.0
2017-Mar-25 03:33N 49°28' W 000°07'0 0.0
2017-Mar-25 02:33N 49°28' W 000°07'0 0.0
2017-Mar-25 01:33N 49°28' W 000°07'5 5.3
2017-Mar-25 00:33N 49°30' W 000°14'8 8.0
2017-Mar-24 23:34N 49°34' W 000°25'8 8.4
2017-Mar-24 22:33N 49°42' W 000°27'1110.7
2017-Mar-24 21:33N 49°52' W 000°19'1010.5
2017-Mar-24 20:33N 50°00' W 000°10'1010.0
2017-Mar-24 19:33N 50°09' W 000°03'1110.0
2017-Mar-24 18:30N 50°20' W 000°03'8 8.6
2017-Mar-24 17:33N 50°28' E 000°01'10 9.9
2017-Mar-24 16:30N 50°31' E 000°17'1010.8
2017-Mar-24 15:33N 50°34' E 000°32'1211.5
2017-Mar-24 14:33N 50°41' E 000°46'1211.9
2017-Mar-24 13:33N 50°49' E 001°01'1111.3
2017-Mar-24 12:33N 50°56' E 001°14'1010.3
2017-Mar-24 11:33N 51°04' E 001°25'9 9.1
2017-Mar-24 10:33N 51°10' E 001°36'8 8.1
2017-Mar-24 09:33N 51°17' E 001°43'8 7.7
2017-Mar-24 08:33N 51°23' E 001°35'7 6.5
2017-Mar-24 07:33N 51°25' E 001°25'2 1.7
2017-Mar-24 06:33N 51°25' E 001°23'0 0.1
2017-Mar-24 05:33N 51°25' E 001°23'0 0.0
2017-Mar-24 04:33N 51°25' E 001°23'0 0.0
2017-Mar-24 03:33N 51°25' E 001°23'0 0.0
2017-Mar-24 02:33N 51°25' E 001°23'0 0.0
2017-Mar-24 01:33N 51°25' E 001°23'0 0.1
2017-Mar-24 00:33N 51°25' E 001°23'0 0.0
2017-Mar-23 23:33N 51°25' E 001°23'0 0.0
2017-Mar-23 22:33N 51°25' E 001°23'0 0.0
2017-Mar-23 21:33N 51°25' E 001°23'0 0.0
2017-Mar-23 20:33N 51°25' E 001°23'0 0.0
2017-Mar-23 19:33N 51°25' E 001°23'0 0.2
2017-Mar-23 18:33N 51°25' E 001°23'0 0.0
2017-Mar-23 17:33N 51°25' E 001°23'0 0.1
2017-Mar-23 16:33N 51°25' E 001°23'0 0.0
2017-Mar-23 15:33N 51°25' E 001°23'0 0.1
2017-Mar-23 14:33N 51°25' E 001°23'0 0.1
2017-Mar-23 13:33N 51°25' E 001°24'0 0.1
2017-Mar-23 12:33N 51°25' E 001°24'0 0.0
2017-Mar-23 11:33N 51°25' E 001°24'0 0.0
2017-Mar-23 10:33N 51°25' E 001°24'0 0.0
2017-Mar-23 09:33N 51°25' E 001°24'0 0.0
2017-Mar-23 08:33N 51°25' E 001°24'0 0.0
2017-Mar-23 07:33N 51°25' E 001°24'0 0.0
2017-Mar-23 06:33N 51°25' E 001°24'0 0.0
2017-Mar-23 05:33N 51°25' E 001°24'0 0.0
2017-Mar-23 04:33N 51°25' E 001°24'0 0.0
2017-Mar-23 03:33N 51°25' E 001°24'0 0.0
2017-Mar-23 02:33N 51°25' E 001°24'0 0.0
2017-Mar-23 01:33N 51°25' E 001°24'0 0.1
2017-Mar-23 00:33N 51°25' E 001°24'0 0.0
2017-Mar-22 23:33N 51°25' E 001°24'0 0.0
2017-Mar-22 22:33N 51°25' E 001°24'0 0.0
2017-Mar-22 21:33N 51°25' E 001°24'0 0.1
2017-Mar-22 20:33N 51°25' E 001°24'0 0.1
2017-Mar-22 19:33N 51°25' E 001°24'0 0.0
2017-Mar-22 18:33N 51°25' E 001°24'0 0.0
2017-Mar-22 17:33N 51°25' E 001°24'0 0.0
2017-Mar-22 16:33N 51°25' E 001°24'1 0.7
2017-Mar-22 15:33N 51°25' E 001°25'2 2.0
2017-Mar-22 14:34N 51°25' E 001°22'0 0.0
2017-Mar-22 13:34N 51°25' E 001°22'0 0.0
2017-Mar-22 12:33N 51°25' E 001°22'0 0.0
2017-Mar-22 11:33N 51°25' E 001°22'0 0.0
2017-Mar-22 10:33N 51°25' E 001°22'0 0.0
2017-Mar-22 09:33N 51°25' E 001°22'0 0.0
2017-Mar-22 08:34N 51°25' E 001°22'0 0.0
2017-Mar-22 07:34N 51°25' E 001°22'0 0.0
2017-Mar-22 06:33N 51°25' E 001°22'0 0.0
2017-Mar-22 05:33N 51°25' E 001°22'0 0.0
2017-Mar-22 04:33N 51°25' E 001°22'0 0.0
2017-Mar-22 03:34N 51°25' E 001°22'0 0.0
2017-Mar-22 02:33N 51°25' E 001°22'0 0.0
2017-Mar-22 01:33N 51°25' E 001°22'0 0.0
2017-Mar-22 00:33N 51°25' E 001°22'0 0.0
2017-Mar-21 23:33N 51°25' E 001°22'0 0.0
2017-Mar-21 22:33N 51°25' E 001°22'0 0.0
2017-Mar-21 21:34N 51°25' E 001°22'0 0.0
2017-Mar-21 20:33N 51°25' E 001°22'0 0.0
2017-Mar-21 19:33N 51°25' E 001°22'0 0.0
2017-Mar-21 18:34N 51°25' E 001°22'0 0.0
2017-Mar-21 17:33N 51°25' E 001°22'0 0.1
2017-Mar-21 16:34N 51°25' E 001°22'0 0.0
2017-Mar-21 15:34N 51°25' E 001°22'0 0.1
2017-Mar-21 14:34N 51°25' E 001°22'0 0.0
2017-Mar-21 13:34N 51°25' E 001°22'0 0.0
2017-Mar-21 12:34N 51°25' E 001°22'0 0.0
2017-Mar-21 11:33N 51°25' E 001°22'0 0.0
2017-Mar-21 10:33N 51°25' E 001°22'0 0.0
2017-Mar-21 09:33N 51°25' E 001°22'0 0.0
2017-Mar-21 08:33N 51°25' E 001°22'0 0.0
2017-Mar-21 07:33N 51°25' E 001°22'0 0.0
2017-Mar-21 06:33N 51°25' E 001°22'0 0.0
2017-Mar-21 05:33N 51°25' E 001°22'0 0.1
2017-Mar-21 04:33N 51°25' E 001°22'0 0.0
2017-Mar-21 03:33N 51°25' E 001°22'0 0.0
2017-Mar-21 02:34N 51°25' E 001°22'0 0.0
2017-Mar-21 01:33N 51°25' E 001°22'0 0.1
2017-Mar-21 00:33N 51°25' E 001°22'0 0.1
2017-Mar-20 23:33N 51°25' E 001°22'0 0.0
2017-Mar-20 22:33N 51°25' E 001°22'0 0.0
2017-Mar-20 21:33N 51°25' E 001°22'0 0.0
2017-Mar-20 20:33N 51°25' E 001°22'0 0.0
2017-Mar-20 19:33N 51°25' E 001°22'0 0.0
2017-Mar-20 18:33N 51°25' E 001°22'0 0.0
2017-Mar-20 17:33N 51°25' E 001°22'0 0.0
2017-Mar-20 16:33N 51°25' E 001°22'0 0.1
2017-Mar-20 15:33N 51°25' E 001°22'0 0.0
2017-Mar-20 14:33N 51°25' E 001°22'0 0.0
2017-Mar-20 13:33N 51°25' E 001°22'0 0.0
2017-Mar-20 12:33N 51°25' E 001°22'0 0.0
2017-Mar-20 11:33N 51°25' E 001°22'0 0.0
2017-Mar-20 10:33N 51°25' E 001°22'0 0.0
2017-Mar-20 09:33N 51°25' E 001°22'0 0.0
2017-Mar-20 08:33N 51°25' E 001°22'0 0.0
2017-Mar-20 07:33N 51°25' E 001°22'0 0.0
2017-Mar-20 06:33N 51°25' E 001°22'0 0.0
2017-Mar-20 05:34N 51°25' E 001°22'6 6.2
2017-Mar-20 04:33N 51°27' E 001°31'9 9.0
2017-Mar-20 03:33N 51°34' E 001°41'9 9.5
2017-Mar-20 02:33N 51°43' E 001°44'1110.9
2017-Mar-20 01:33N 51°54' E 001°44'1211.6
2017-Mar-20 00:33N 52°05' E 001°49'126 8.8
2017-Mar-19 10:12N 53°60' E 000°23'711.3
2017-Mar-19 09:33N 54°06' E 000°16'1111.5
2017-Mar-19 08:33N 54°15' E 000°06'1111.4
2017-Mar-19 07:33N 54°25' W 000°05'1211.6
2017-Mar-19 06:33N 54°35' W 000°15'1311.1
2017-Mar-19 05:26N 54°46' W 000°26'3210.4
2017-Mar-19 02:23N 55°12' W 000°56'810.0
2017-Mar-19 01:33N 55°20' W 001°03'10 9.7
2017-Mar-19 00:33N 55°28' W 001°12'10 9.8
2017-Mar-18 23:33N 55°36' W 001°21'12 9.9
2017-Mar-18 22:20N 55°46' W 001°34'910.8
2017-Mar-18 21:33N 55°52' W 001°43'1110.9
2017-Mar-18 20:33N 56°00' W 001°56'1111.0
2017-Mar-18 19:33N 56°09' W 002°09'1110.9
2017-Mar-18 18:33N 56°18' W 002°21'1110.9
2017-Mar-18 17:33N 56°26' W 002°34'9 8.7
2017-Mar-18 16:33N 56°27' W 002°49'4 3.8
2017-Mar-18 15:29N 56°28' W 002°57'0 0.0
2017-Mar-18 14:29N 56°28' W 002°57'0 0.0
2017-Mar-18 13:17N 56°28' W 002°57'0 0.0
2017-Mar-18 12:29N 56°28' W 002°57'0 0.0
2017-Mar-18 11:17N 56°28' W 002°57'0 0.0
2017-Mar-18 10:23N 56°28' W 002°57'  

Dump ship's entire track history